Nearby METAR Reports

Here are local weather reports from nearby weather stations and airports.

KHFD - Hartford/Brainar, Connecticut, USA
Distance from station: NE 5mi, 8km
Updated: Fri, 06/05/20 5:53pm EDT
unable to load KHFD data RC=
unable to load KHFD data RC=
 
KMMK - Meriden, Connecticut, USA
Distance from station: SSW 13mi, 21km
Updated: Fri, 06/05/20 5:31pm EDT
Overcast
Overcast
 Wind from S
Wind: S 10 mph , 17 km/h
Temperature: 73°F , 23°C
Dew Point: 68°F , 20°C
Humidity: 83%
Barometer: 29.85 inHg , 1010.8 hPa
Clouds: Overcast
Visibility: 10 miles , 16 km
Cloud details: Few Clouds 1300 ft
Partly cloudy 2400 ft
Overcast 12000 ft
2020/06/05 21:31 KMMK 052131Z AUTO 19009KT 10SM FEW013 SCT024 OVC120 23/20 A2985 RMK AO2 T02330200
 
KBDL - Windsor Locks, Connecticut, USA
Distance from station: N 17mi, 28km
Updated: Fri, 06/05/20 5:51pm EDT
Partly cloudy
Partly cloudy
 Wind from S
Wind: S 14 mph , 22 km/h
Temperature: 81°F , 27°C
Heat Index: 84°F , 29°C
Dew Point: 68°F , 20°C
Humidity: 66%
Barometer: 29.82 inHg , 1009.8 hPa
Clouds: Partly cloudy
Visibility: 10 miles , 16 km
Cloud details: Few Clouds 2500 ft
Few Clouds 4100 ft
Partly cloudy 15000 ft
Partly cloudy 25000 ft
2020/06/05 21:51 KBDL 052151Z 18012KT 10SM FEW025 FEW041 SCT150 SCT250 27/20 A2982 RMK AO2 SLP096 T02670200
KSNC - Chester, Connecticut, USA
Distance from station: SSE 24mi, 38km
Updated: Fri, 06/05/20 5:15pm EDT
Few Clouds
Few Clouds
 Wind from varies
Wind: varies 5 mph , 7 km/h, Gust: 12 mph , 19 km/h
Temperature: 72°F , 22°C
Dew Point: 70°F , 21°C
Humidity: 94%
Barometer: 29.88 inHg , 1011.9 hPa
Clouds: Few Clouds
Visibility: 7 miles , 11 km
Cloud details: Few Clouds 3600 ft
Few Clouds 4700 ft
Few Clouds 6500 ft
2020/06/05 21:15 KSNC 052115Z AUTO VRB04G10KT 7SM FEW036 FEW047 FEW065 22/21 A2988 RMK AO2
 
KOXC - Oxford/Waterbury, Connecticut, USA
Distance from station: SW 26mi, 42km
Updated: Fri, 06/05/20 5:51pm EDT
Mostly cloudy
Mostly cloudy
 Wind from SSW
Wind: SSW 7 mph , 11 km/h
Temperature: 72°F , 22°C
Dew Point: 70°F , 21°C
Humidity: 94%
Barometer: 29.89 inHg , 1012.2 hPa
Clouds: Mostly cloudy
Visibility: 9 miles , 14 km
Cloud details: Mostly cloudy 800 ft
Mostly cloudy 11000 ft
2020/06/05 21:51 KOXC 052151Z 21006KT 9SM BKN008 BKN110 22/21 A2989 RMK AO2 SLP127 T02220206
KIJD - Willimantic, Connecticut, USA
Distance from station: E 28mi, 45km
Updated: Fri, 06/05/20 5:24pm EDT
Overcast
Overcast
 Wind from SSW
Wind: SSW 12 mph , 19 km/h
Temperature: 77°F , 25°C
Dew Point: 70°F , 21°C
Humidity: 79%
Barometer: 29.85 inHg , 1010.8 hPa
Clouds: Overcast
Visibility: 10 miles , 16 km
Cloud details: Mostly cloudy 2100 ft
Overcast 9000 ft
2020/06/05 21:24 KIJD 052124Z AUTO 20010KT 10SM BKN021 OVC090 25/21 A2985 RMK AO2 T02500206
 
KHVN - New Haven/Tweed, Connecticut, USA
Distance from station: SSW 30mi, 48km
Updated: Fri, 06/05/20 4:53pm EDT
Mist, Overcast
Mist, Overcast
 Wind from calm
Wind: Calm
Temperature: 72°F , 22°C
Dew Point: 70°F , 21°C
Humidity: 94%
Barometer: 29.87 inHg , 1011.5 hPa
Summary: Mist
Clouds: Overcast
Visibility: 4 miles , 6 km
Cloud details: Overcast 11000 ft
2020/06/05 20:53 KHVN 052053Z 00000KT 4SM BR OVC110 22/21 A2987 RMK AO2 RAE01 SLP115 P0000 60001 T02170206 55010
KBAF - Westfield, Massachusetts, USA
Distance from station: 0 33mi, 54km
Updated: Fri, 06/05/20 4:53pm EDT
Few Clouds
Few Clouds
 Wind from S
Wind: S 12 mph , 19 km/h
Temperature: 84°F , 29°C
Heat Index: 85°F , 29°C
Dew Point: 64°F , 18°C
Humidity: 51%
Barometer: 29.81 inHg , 1009.5 hPa
Clouds: Few Clouds
Visibility: 10 miles , 16 km
Cloud details: Few Clouds 4300 ft
2020/06/05 20:53 KBAF 052053Z 19010KT 10SM FEW043 29/18 A2981 RMK AO2 SLP092 T02940183 58016
 
KCEF - Chicopee/Westove, Massachusetts, USA
Distance from station: NNE 37mi, 60km
Updated: Fri, 06/05/20 4:56pm EDT
Partly cloudy
Partly cloudy
 Wind from SSW
Wind: SSW 10 mph , 17 km/h, Gust: 21 mph , 33 km/h
Temperature: 84°F , 29°C
Heat Index: 86°F , 30°C
Dew Point: 66°F , 19°C
Humidity: 55%
Barometer: 29.80 inHg , 1009.1 hPa
Clouds: Partly cloudy
Visibility: 10 miles , 16 km
Cloud details: Few Clouds 3500 ft
Partly cloudy 20000 ft
2020/06/05 20:56 KCEF 052056Z 21009G18KT 10SM FEW035 SCT200 29/19 A2980 RMK AO2A SLP095 T02860186 57021
KBDR - Bridgeport, Connecticut, USA
Distance from station: SSW 42mi, 67km
Updated: Fri, 06/05/20 4:52pm EDT
Mist, Mostly cloudy
Mist, Mostly cloudy
 Wind from calm
Wind: Calm
Temperature: 72°F , 22°C
Dew Point: 68°F , 20°C
Humidity: 88%
Barometer: 29.87 inHg , 1011.5 hPa
Summary: Mist
Clouds: Mostly cloudy
Visibility: 5 miles , 8 km
Cloud details: Few Clouds 8000 ft
Mostly cloudy 11000 ft
2020/06/05 20:52 KBDR 052052Z 00000KT 5SM BR FEW080 BKN110 22/20 A2987 RMK AO2 SLP114 60002 T02220200 58013
 
KGON - Groton/New Londo, Connecticut, USA
Distance from station: SE 42mi, 68km
Updated: Fri, 06/05/20 4:56pm EDT
Partly cloudy
Partly cloudy
 Wind from S
Wind: S 6 mph , 9 km/h
Temperature: 66°F , 19°C
Dew Point: 64°F , 18°C
Humidity: 94%
Barometer: 29.87 inHg , 1011.5 hPa
Clouds: Partly cloudy
Visibility: 7 miles , 11 km
Cloud details: Partly cloudy 1400 ft
Partly cloudy 12000 ft
2020/06/05 20:56 KGON 052056Z 18005KT 7SM SCT014 SCT120 19/18 A2987 RMK AO2 SLP115 60000 T01890178 56008
KDXR - Danbury, Connecticut, USA
Distance from station: WSW 45mi, 73km
Updated: Fri, 06/05/20 4:53pm EDT
Overcast
Overcast
 Wind from SW
Wind: SW 8 mph , 13 km/h
Temperature: 75°F , 24°C
Dew Point: 66°F , 19°C
Humidity: 74%
Barometer: 29.88 inHg , 1011.9 hPa
Clouds: Overcast
Visibility: 10 miles , 16 km
Cloud details: Few Clouds 2300 ft
Overcast 10000 ft
2020/06/05 20:53 KDXR 052053Z 23007KT 10SM FEW023 OVC100 24/19 A2988 RMK AO2 SLP114 60000 T02440194 56011